Time;durP1;ratioP1;P1;durP2;ratioP2;P2;SDS_P1;SDS_P2;PMS_P1;PMS_P2;Temp;Humidity;BMP_temperature;BMP_pressure;BME280_temperature;BME280_humidity;BME280_pressure;Samples;Min_cycle;Max_cycle;Signal;HPM_P1;HPM_P2
2023/01/21 00:00:21;;;;;;;32.47;19.83;;;-0.20;99.90;;;-1.40;100.00;102166.03;4152703;28;20551;-79
2023/01/21 00:02:22;;;;;;;27.92;19.17;;;-0.20;99.90;;;-1.40;100.00;102168.63;4151862;28;20033;-79
2023/01/21 00:04:23;;;;;;;32.40;19.27;;;-0.20;99.90;;;-1.37;100.00;102176.28;4151447;28;20030;-79
2023/01/21 00:06:24;;;;;;;32.15;21.17;;;-0.20;99.90;;;-1.35;100.00;102176.28;4151896;28;20445;-79
2023/01/21 00:08:26;;;;;;;32.92;20.23;;;-0.20;99.90;;;-1.34;100.00;102168.44;4163916;28;20025;-79
2023/01/21 00:10:26;;;;;;;32.55;21.13;;;-0.20;99.90;;;-1.32;100.00;102174.44;4151579;28;20575;-79
2023/01/21 00:12:27;;;;;;;33.47;20.60;;;-0.20;99.90;;;-1.34;100.00;102165.84;4152894;28;20034;-79
2023/01/21 00:14:30;;;;;;;27.70;19.48;;;-0.20;99.90;;;-1.35;100.00;102164.19;4152333;28;20030;-79
2023/01/21 00:16:30;;;;;;;28.83;18.70;;;-0.20;99.90;;;-1.32;100.00;102176.19;4153006;28;20033;-79
2023/01/21 00:18:33;;;;;;;28.15;18.80;;;-0.20;99.90;;;-1.36;100.00;102188.34;4159387;28;20036;-79
2023/01/21 00:20:33;;;;;;;30.42;17.83;;;-0.20;99.90;;;-1.41;100.00;102187.66;4150824;28;20048;-79
2023/01/21 00:22:34;;;;;;;31.35;18.90;;;-0.20;99.90;;;-1.44;100.00;102186.88;4151155;28;20049;-79
2023/01/21 00:24:35;;;;;;;27.45;20.20;;;-0.20;99.90;;;-1.47;100.00;102176.63;4135690;28;20027;-79
2023/01/21 00:26:36;;;;;;;29.02;18.67;;;-0.20;99.90;;;-1.43;100.00;102191.16;4153234;28;20033;-79
2023/01/21 00:28:38;;;;;;;29.83;20.17;;;-0.20;99.90;;;-1.50;100.00;102192.25;4156783;28;20113;-79
2023/01/21 00:30:40;;;;;;;30.25;19.65;;;-0.30;99.90;;;-1.49;100.00;102199.13;4150940;28;20033;-79
2023/01/21 00:32:41;;;;;;;30.27;17.45;;;-0.30;99.90;;;-1.49;100.00;102196.53;4152517;28;20105;-79
2023/01/21 00:34:42;;;;;;;31.85;18.65;;;-0.30;99.90;;;-1.50;100.00;102206.03;4152100;28;20037;-79
2023/01/21 00:36:43;;;;;;;24.05;17.88;;;-0.30;99.90;;;-1.50;100.00;102208.63;4154332;28;20017;-79
2023/01/21 00:38:47;;;;;;;28.80;19.33;;;-0.30;99.90;;;-1.51;100.00;102211.22;4153479;28;20029;-79
2023/01/21 00:40:48;;;;;;;29.90;18.83;;;-0.30;99.90;;;-1.54;100.00;102211.31;4152428;28;20026;-79
2023/01/21 00:42:49;;;;;;;29.60;19.42;;;-0.40;99.90;;;-1.56;100.00;102210.53;4134765;28;20029;-79
2023/01/21 00:44:50;;;;;;;33.30;19.92;;;-0.40;99.90;;;-1.58;100.00;102201.97;4152173;28;20080;-79
2023/01/21 00:46:51;;;;;;;31.20;18.80;;;-0.40;99.90;;;-1.54;100.00;102208.72;4154248;28;20021;-79
2023/01/21 00:48:52;;;;;;;27.13;18.10;;;-0.40;99.90;;;-1.55;100.00;102213.06;4152207;28;20103;-79
2023/01/21 00:50:54;;;;;;;28.55;17.77;;;-0.40;99.90;;;-1.53;100.00;102216.47;4150829;28;20425;-79
2023/01/21 00:52:55;;;;;;;29.00;18.17;;;-0.40;99.90;;;-1.50;100.00;102210.34;4134941;28;20022;-79
2023/01/21 00:54:56;;;;;;;26.70;19.30;;;-0.40;99.90;;;-1.46;100.00;102217.13;4151133;28;20033;-79
2023/01/21 00:56:58;;;;;;;23.80;15.85;;;-0.30;99.90;;;-1.34;100.00;102216.75;4156493;28;20053;-79
2023/01/21 00:58:59;;;;;;;26.80;16.08;;;-0.30;99.90;;;-1.19;100.00;102216.31;4152100;28;20540;-79
2023/01/21 01:01:18;;;;;;;24.42;14.93;;;-0.20;99.90;;;-1.07;100.00;102209.94;4152171;28;20033;-79
2023/01/21 01:03:19;;;;;;;22.73;15.05;;;0.00;99.90;;;-0.94;100.00;102206.09;4134608;28;20077;-79
2023/01/21 01:05:21;;;;;;;23.98;16.20;;;0.20;99.90;;;-0.93;100.00;102210.38;4134898;28;20085;-79
2023/01/21 01:07:22;;;;;;;25.98;17.27;;;0.20;99.90;;;-0.88;100.00;102221.44;4154338;28;20064;-79
2023/01/21 01:09:23;;;;;;;27.88;18.33;;;0.20;99.90;;;-0.85;100.00;102213.56;4155148;28;20436;-79
2023/01/21 01:11:26;;;;;;;26.13;15.38;;;0.30;99.90;;;-0.76;100.00;102214.13;4154152;28;20030;-79
2023/01/21 01:13:27;;;;;;;20.53;13.10;;;0.40;99.90;;;-0.75;100.00;102204.63;4155373;28;20440;-79
2023/01/21 01:15:28;;;;;;;22.75;12.73;;;0.40;99.90;;;-0.59;100.00;102224.81;4154006;28;20053;-79
2023/01/21 01:17:29;;;;;;;21.95;12.45;;;0.50;99.90;;;-0.45;100.00;102216.59;4155412;28;20092;-79
2023/01/21 01:19:30;;;;;;;18.77;13.23;;;0.60;99.90;;;-0.31;100.00;102224.78;4154896;28;20038;-79
2023/01/21 01:21:31;;;;;;;20.52;13.13;;;0.70;99.90;;;-0.30;100.00;102212.66;4153821;28;20046;-79
2023/01/21 01:23:32;;;;;;;20.73;13.40;;;0.80;99.90;;;-0.27;100.00;102223.75;4153821;28;20045;-79
2023/01/21 01:25:34;;;;;;;15.82;12.27;;;0.80;99.90;;;-0.33;100.00;102221.34;4155994;28;20018;-79
2023/01/21 01:27:34;;;;;;;17.45;12.30;;;0.80;99.90;;;-0.38;100.00;102225.00;4165613;28;20192;-79
2023/01/21 01:29:35;;;;;;;17.42;12.23;;;0.70;99.90;;;-0.40;100.00;102219.88;4155009;28;20029;-79
2023/01/21 01:31:36;;;;;;;22.73;13.63;;;0.70;99.90;;;-0.29;100.00;102222.97;4153757;28;20042;-79
2023/01/21 01:33:37;;;;;;;18.45;10.88;;;0.80;99.90;;;-0.24;100.00;102221.06;4154876;28;20025;-79
2023/01/21 01:35:38;;;;;;;24.90;13.98;;;0.80;99.90;;;-0.12;100.00;102220.66;4153364;28;20033;-79
2023/01/21 01:37:39;;;;;;;21.67;12.43;;;0.90;99.90;;;-0.06;100.00;102227.41;4164365;28;20030;-79
2023/01/21 01:39:40;;;;;;;19.55;12.55;;;1.00;99.90;;;0.00;100.00;102225.41;4153512;28;20041;-79
2023/01/21 01:41:41;;;;;;;17.10;12.38;;;1.00;99.90;;;0.06;100.00;102229.53;4153562;28;20092;-79
2023/01/21 01:44:01;;;;;;;19.50;11.93;;;1.10;99.90;;;-0.01;100.00;102228.94;4154440;28;20037;-79
2023/01/21 01:46:02;;;;;;;18.58;12.38;;;1.10;99.90;;;-0.18;100.00;102227.81;4159857;28;20026;-79
2023/01/21 01:48:05;;;;;;;19.73;11.98;;;1.00;99.90;;;-0.23;100.00;102229.69;4158358;28;20516;-79
2023/01/21 01:50:11;;;;;;;17.63;11.60;;;0.90;99.90;;;-0.25;100.00;102221.97;4153099;28;20025;-79
2023/01/21 01:52:13;;;;;;;20.40;11.27;;;0.90;99.90;;;-0.16;100.00;102229.44;4153659;28;20591;-79
2023/01/21 01:54:22;;;;;;;15.68;10.75;;;0.90;99.90;;;-0.14;100.00;102217.25;4154698;28;20156;-79
2023/01/21 01:56:23;;;;;;;18.48;11.55;;;0.90;99.90;;;-0.11;100.00;102222.34;4157536;28;20520;-79
2023/01/21 01:58:24;;;;;;;17.80;11.40;;;1.00;99.90;;;-0.08;100.00;102222.25;4153483;28;20030;-79
2023/01/21 02:00:25;;;;;;;19.23;11.82;;;1.00;99.90;;;-0.09;100.00;102224.91;4153909;28;20062;-79
2023/01/21 02:02:26;;;;;;;21.70;11.52;;;0.90;99.90;;;-0.07;100.00;102223.94;4153323;28;20429;-79
2023/01/21 02:04:36;;;;;;;18.48;12.05;;;1.00;99.90;;;-0.07;100.00;102218.75;4136595;28;20054;-79
2023/01/21 02:06:38;;;;;;;19.58;11.98;;;1.00;99.90;;;-0.06;100.00;102219.63;4153391;28;20093;-79
2023/01/21 02:08:39;;;;;;;18.77;11.75;;;0.90;99.90;;;-0.12;100.00;102218.06;4154595;28;20123;-79
2023/01/21 02:10:40;;;;;;;22.40;12.77;;;1.00;99.90;;;-0.08;100.00;102221.41;4154349;28;20080;-79
2023/01/21 02:12:43;;;;;;;18.60;12.20;;;1.00;99.90;;;-0.13;100.00;102218.97;4154296;28;20639;-79
2023/01/21 02:14:45;;;;;;;21.25;13.80;;;1.00;99.90;;;-0.04;100.00;102228.19;4154378;28;20025;-79
2023/01/21 02:17:21;;;;;;;22.58;13.40;;;1.00;99.90;;;-0.10;100.00;102233.56;4161620;28;20028;-79
2023/01/21 02:19:48;;;;;;;;;;;1.00;99.90;;;-0.15;100.00;102236.31;4154907;28;20157;-79
2023/01/21 02:22:23;;;;;;;19.88;12.25;;;1.00;99.90;;;-0.15;100.00;102240.66;4138870;28;20008;-79
2023/01/21 02:24:38;;;;;;;16.23;11.05;;;0.90;99.90;;;-0.23;100.00;102240.91;4157115;28;20100;-79
2023/01/21 02:27:35;;;;;;;21.75;12.95;;;0.90;99.90;;;-0.28;100.00;102235.03;4168019;28;20032;-79
2023/01/21 02:29:57;;;;;;;18.48;12.82;;;0.90;99.90;;;-0.24;100.00;102235.78;4128107;28;20041;-79
2023/01/21 02:32:26;;;;;;;23.35;12.93;;;0.90;99.90;;;-0.29;100.00;102235.06;4153966;28;20489;-79
2023/01/21 02:34:45;;;;;;;19.30;11.93;;;0.80;99.90;;;-0.27;100.00;102239.31;4152341;28;20037;-79
2023/01/21 02:37:08;;;;;;;18.83;12.52;;;0.80;99.90;;;-0.27;100.00;102239.31;4161119;28;20039;-79
2023/01/21 02:39:36;;;;;;;20.05;12.13;;;0.80;99.90;;;-0.31;100.00;102235.13;4141224;28;20096;-79
2023/01/21 02:42:00;;;;;;;20.00;11.95;;;0.80;99.90;;;-0.28;100.00;102235.03;4152697;28;20463;-79
2023/01/21 02:44:28;;;;;;;20.50;12.50;;;0.80;99.90;;;-0.24;100.00;102235.78;4152457;28;20034;-79
2023/01/21 02:46:44;;;;;;;17.45;11.88;;;0.80;99.90;;;-0.22;100.00;102257.31;4158387;28;20052;-79
2023/01/21 02:48:57;;;;;;;16.88;11.77;;;0.80;99.90;;;-0.24;100.00;102246.97;4140016;28;20026;-79
2023/01/21 02:50:58;;;;;;;16.67;11.65;;;0.80;99.90;;;-0.22;100.00;102247.81;4152445;28;20494;-79
2023/01/21 02:53:01;;;;;;;18.73;11.40;;;0.80;99.90;;;-0.28;100.00;102240.22;4153724;28;20048;-79
2023/01/21 02:55:03;;;;;;;16.55;11.27;;;0.80;99.90;;;-0.32;100.00;102241.22;4152315;28;20051;-79
2023/01/21 02:57:08;;;;;;;17.48;11.77;;;0.80;99.90;;;-0.29;100.00;102245.44;4156180;28;20052;-79
2023/01/21 02:59:09;;;;;;;;;;;0.80;99.90;;;-0.31;100.00;102244.66;4152859;28;20030;-79
2023/01/21 03:01:43;;;;;;;16.15;10.23;;;0.80;99.90;;;-0.24;100.00;102244.38;4152309;28;19914;-79
2023/01/21 03:03:59;;;;;;;20.50;10.63;;;0.80;99.90;;;-0.26;100.00;102253.97;4153642;28;20030;-79
2023/01/21 03:06:09;;;;;;;14.70;10.27;;;0.80;99.90;;;-0.24;100.00;102256.53;4153706;28;20030;-79
2023/01/21 03:08:21;;;;;;;16.40;10.57;;;0.80;99.90;;;-0.29;100.00;102251.47;4140690;28;20079;-79
2023/01/21 03:10:29;;;;;;;17.75;10.65;;;0.80;99.90;;;-0.26;100.00;102255.72;4152366;28;20060;-79
2023/01/21 03:12:57;;;;;;;14.57;10.13;;;0.80;99.90;;;-0.33;100.00;102251.66;4153361;28;20104;-79
2023/01/21 03:17:55;;;;;;;17.27;9.70;;;0.80;99.90;;;-0.32;100.00;102248.13;4164700;28;20056;-79
2023/01/21 03:20:16;;;;;;;17.85;11.10;;;0.80;99.90;;;-0.28;100.00;102248.00;4142709;28;20036;-79
2023/01/21 03:22:23;;;;;;;14.98;10.27;;;0.80;99.90;;;-0.21;100.00;102262.44;4152159;28;20536;-79
2023/01/21 03:24:24;;;;;;;14.00;10.60;;;0.80;99.90;;;-0.14;100.00;102258.75;4152968;28;20552;-79
2023/01/21 03:26:48;;;;;;;22.20;12.48;;;0.80;99.90;;;-0.19;100.00;102265.00;4155609;28;20021;-79
2023/01/21 03:28:54;;;;;;;23.58;11.90;;;0.80;99.90;;;-0.21;100.00;102267.63;4154711;28;20057;-79
2023/01/21 03:31:09;;;;;;;18.30;11.73;;;0.90;99.90;;;-0.21;100.00;102267.63;4152193;28;20428;-79
2023/01/21 03:33:12;;;;;;;15.00;10.40;;;0.80;99.90;;;-0.16;100.00;102276.13;4151970;28;20421;-79
2023/01/21 03:35:38;;;;;;;16.40;11.60;;;0.90;99.90;;;-0.15;100.00;102272.59;4152851;28;20026;-79
2023/01/21 03:38:15;;;;;;;17.63;11.02;;;0.90;99.90;;;-0.17;100.00;102284.78;4163173;28;20036;-79
2023/01/21 03:40:34;;;;;;;19.40;12.70;;;0.90;99.90;;;-0.24;100.00;102270.31;4155248;28;20044;-79
2023/01/21 03:42:35;;;;;;;18.33;11.45;;;0.90;99.90;;;-0.24;100.00;102274.69;4151953;28;20034;-79
2023/01/21 03:44:38;;;;;;;14.80;10.10;;;0.90;99.90;;;-0.30;100.00;102278.28;4151804;28;20021;-79
2023/01/21 03:46:55;;;;;;;17.65;10.10;;;0.80;99.90;;;-0.45;100.00;102276.22;4156883;28;20026;-79
2023/01/21 03:49:09;;;;;;;10.13;8.10;;;0.80;99.90;;;-0.62;100.00;102275.88;4141976;28;20022;-79
2023/01/21 03:51:20;;;;;;;14.88;9.40;;;0.60;99.90;;;-0.77;100.00;102276.34;4135672;28;20068;-79
2023/01/21 03:53:21;;;;;;;12.77;8.45;;;0.50;99.90;;;-0.89;100.00;102281.88;4152653;28;20148;-79
2023/01/21 03:55:22;;;;;;;12.52;9.23;;;0.40;99.90;;;-1.05;100.00;102268.56;4151636;28;20030;-79
2023/01/21 03:57:23;;;;;;;12.02;8.27;;;0.20;99.90;;;-1.13;100.00;102262.75;4151540;28;20025;-79
2023/01/21 03:59:24;;;;;;;17.92;10.18;;;0.20;99.90;;;-1.13;100.00;102271.38;4151577;28;20032;-79
2023/01/21 04:01:25;;;;;;;13.77;10.30;;;0.10;99.90;;;-1.12;100.00;102280.84;4151353;28;20555;-79
2023/01/21 04:03:26;;;;;;;14.35;9.75;;;0.10;99.90;;;-1.19;100.00;102275.88;4151245;28;20038;-79
2023/01/21 04:05:27;;;;;;;13.93;9.48;;;0.00;99.90;;;-1.19;100.00;102284.47;4152447;28;20393;-79
2023/01/21 04:07:27;;;;;;;13.35;9.48;;;0.00;99.90;;;-1.29;100.00;102274.44;4163450;28;20025;-79
2023/01/21 04:09:28;;;;;;;15.15;10.70;;;0.00;99.90;;;-1.23;100.00;102275.13;4152198;28;20029;-79
2023/01/21 04:11:29;;;;;;;15.60;9.82;;;0.00;99.90;;;-1.19;100.00;102283.63;4152643;28;20031;-79
2023/01/21 04:13:30;;;;;;;16.23;10.30;;;0.00;99.90;;;-1.23;100.00;102282.03;4135020;28;20034;-79
2023/01/21 04:15:31;;;;;;;16.17;10.60;;;0.00;99.90;;;-1.19;100.00;102281.03;4152461;28;20547;-78
2023/01/21 04:17:32;;;;;;;14.07;9.50;;;-0.10;99.90;;;-1.19;100.00;102276.72;4162169;28;20113;-79
2023/01/21 04:19:33;;;;;;;15.13;10.45;;;-0.10;99.90;;;-1.20;100.00;102275.03;4151088;28;20026;-79
2023/01/21 04:21:34;;;;;;;14.48;9.93;;;-0.10;99.90;;;-1.17;100.00;102279.28;4151076;28;20124;-78
2023/01/21 04:23:35;;;;;;;15.25;9.35;;;-0.10;99.90;;;-1.21;100.00;102281.09;4151366;28;20029;-79
2023/01/21 04:25:36;;;;;;;14.70;9.18;;;-0.10;99.90;;;-1.25;100.00;102284.66;4166006;28;20028;-79
2023/01/21 04:27:36;;;;;;;16.73;10.35;;;-0.10;99.90;;;-1.32;100.00;102288.31;4159814;28;20038;-79
2023/01/21 04:29:37;;;;;;;17.70;10.00;;;-0.10;99.90;;;-1.36;100.00;102276.34;4152405;28;20408;-79
2023/01/21 04:31:38;;;;;;;16.70;9.50;;;-0.20;99.90;;;-1.38;100.00;102278.16;4152313;28;20071;-79
2023/01/21 04:33:39;;;;;;;17.23;9.27;;;-0.20;99.90;;;-1.36;100.00;102280.69;4152222;28;20022;-79
2023/01/21 04:35:40;;;;;;;15.18;9.27;;;-0.20;99.90;;;-1.40;100.00;102274.72;4152208;28;20448;-79
2023/01/21 04:37:41;;;;;;;15.48;9.57;;;-0.20;99.90;;;-1.43;100.00;102279.13;4158600;28;20525;-79
2023/01/21 04:39:42;;;;;;;13.35;9.77;;;-0.30;99.90;;;-1.47;100.00;102287.91;4152351;28;20041;-79
2023/01/21 04:41:43;;;;;;;12.57;8.82;;;-0.30;99.90;;;-1.44;100.00;102291.25;4153961;28;20367;-79
2023/01/21 04:43:44;;;;;;;12.13;7.85;;;-0.30;99.90;;;-1.42;100.00;102292.06;4154491;28;20021;-79
2023/01/21 04:45:45;;;;;;;12.35;8.65;;;-0.30;99.90;;;-1.47;100.00;102283.56;4155633;28;20513;-79
2023/01/21 04:47:46;;;;;;;10.30;7.72;;;-0.30;99.90;;;-1.42;100.00;102296.38;4158576;28;20034;-79
2023/01/21 04:49:47;;;;;;;12.13;7.38;;;-0.30;99.90;;;-1.44;100.00;102301.59;4155294;28;20038;-79
2023/01/21 04:51:48;;;;;;;10.90;7.32;;;-0.30;99.90;;;-1.46;100.00;102303.38;4155398;28;20030;-79
2023/01/21 04:53:49;;;;;;;13.60;8.85;;;-0.30;99.90;;;-1.49;100.00;102300.84;4155691;28;20087;-79
2023/01/21 04:55:51;;;;;;;13.38;8.95;;;-0.30;99.90;;;-1.52;100.00;102297.53;4155470;28;20057;-79
2023/01/21 04:57:52;;;;;;;15.10;8.73;;;-0.30;99.90;;;-1.53;100.00;102301.84;4139880;28;20097;-79
2023/01/21 04:59:53;;;;;;;12.18;7.30;;;-0.40;99.90;;;-1.56;100.00;102293.31;4155178;28;20034;-79
2023/01/21 05:01:53;;;;;;;14.15;9.15;;;-0.40;99.90;;;-1.53;100.00;102304.44;4137641;28;20506;-79
2023/01/21 05:03:54;;;;;;;13.77;7.63;;;-0.40;99.90;;;-1.58;100.00;102292.53;4155328;28;20022;-79
2023/01/21 05:05:55;;;;;;;13.82;9.00;;;-0.40;99.90;;;-1.59;100.00;102298.56;4153953;28;20552;-79
2023/01/21 05:07:56;;;;;;;12.63;8.35;;;-0.40;99.90;;;-1.66;100.00;102295.28;4150175;28;20026;-79
2023/01/21 05:09:57;;;;;;;14.73;8.85;;;-0.40;99.90;;;-1.63;100.00;102292.63;4154149;28;20468;-79
2023/01/21 05:11:58;;;;;;;14.07;8.63;;;-0.50;99.90;;;-1.56;100.00;102299.34;4154197;28;20041;-79
2023/01/21 05:13:59;;;;;;;16.35;8.52;;;-0.40;99.90;;;-1.54;100.00;102302.72;4153923;28;20030;-79
2023/01/21 05:16:07;;;;;;;13.23;8.20;;;-0.40;99.90;;;-1.55;100.00;102301.03;4153564;28;20021;-79
2023/01/21 05:18:07;;;;;;;13.88;8.63;;;-0.40;99.90;;;-1.60;100.00;102289.97;4164289;28;20038;-79
2023/01/21 05:20:09;;;;;;;11.80;8.10;;;-0.40;99.90;;;-1.60;100.00;102297.72;4153393;28;20033;-79
2023/01/21 05:22:10;;;;;;;15.73;8.35;;;-0.40;99.90;;;-1.60;100.00;102296.88;4153932;28;20038;-79
2023/01/21 05:24:12;;;;;;;14.00;7.85;;;-0.40;99.90;;;-1.67;100.00;102298.75;4140676;28;20042;-79
2023/01/21 05:26:13;;;;;;;15.48;9.18;;;-0.50;99.90;;;-1.73;100.00;102299.78;4165735;28;20112;-79
2023/01/21 05:28:14;;;;;;;14.45;8.43;;;-0.50;99.90;;;-1.64;100.00;102301.25;4163686;28;20010;-79
2023/01/21 05:30:15;;;;;;;13.18;8.32;;;-0.50;99.90;;;-1.63;100.00;102310.72;4155035;28;20034;-79
2023/01/21 05:32:16;;;;;;;10.18;6.63;;;-0.50;99.90;;;-1.62;100.00;102319.34;4154752;28;20025;-79
2023/01/21 05:34:17;;;;;;;15.00;8.27;;;-0.50;99.90;;;-1.67;100.00;102305.69;4154713;28;20088;-79
2023/01/21 05:36:18;;;;;;;12.43;8.38;;;-0.50;99.90;;;-1.64;100.00;102311.63;4154177;28;20026;-79
2023/01/21 05:38:19;;;;;;;14.60;8.10;;;-0.50;99.90;;;-1.59;100.00;102320.13;4159817;28;20041;-79
2023/01/21 05:40:20;;;;;;;12.55;7.53;;;-0.50;99.90;;;-1.62;100.00;102311.59;4150625;28;20032;-79
2023/01/21 05:42:21;;;;;;;12.77;7.57;;;-0.50;99.90;;;-1.64;100.00;102313.38;4145000;28;20508;-79
2023/01/21 05:44:21;;;;;;;10.05;6.97;;;-0.50;99.90;;;-1.72;100.00;102310.97;4153758;28;20033;-79
2023/01/21 05:46:22;;;;;;;12.15;8.07;;;-0.50;99.90;;;-1.68;100.00;102325.53;4155741;28;20022;-79
2023/01/21 05:48:23;;;;;;;15.07;8.70;;;-0.50;99.90;;;-1.71;100.00;102317.84;4155172;28;20030;-79
2023/01/21 05:50:24;;;;;;;14.15;7.10;;;-0.50;99.90;;;-1.76;100.00;102323.13;4153387;28;20485;-79
2023/01/21 05:52:25;;;;;;;13.02;8.38;;;-0.60;99.90;;;-1.81;100.00;102314.66;4150611;28;20065;-79
2023/01/21 05:54:26;;;;;;;11.02;7.40;;;-0.60;99.90;;;-1.83;100.00;102323.34;4149427;28;20033;-79
2023/01/21 05:56:27;;;;;;;11.90;7.63;;;-0.60;99.90;;;-1.85;100.00;102322.53;4153512;28;20098;-79
2023/01/21 05:58:28;;;;;;;9.23;6.95;;;-0.60;99.90;;;-1.88;100.00;102320.03;4154899;28;20030;-79
2023/01/21 06:00:29;;;;;;;13.45;6.68;;;-0.70;99.90;;;-1.88;100.00;102325.19;4153413;28;20030;-79
2023/01/21 06:02:30;;;;;;;13.45;7.10;;;-0.70;99.90;;;-1.87;100.00;102324.28;4154321;28;20036;-79
2023/01/21 06:04:31;;;;;;;12.18;7.32;;;-0.70;99.90;;;-1.89;100.00;102319.19;4153900;28;20018;-79
2023/01/21 06:06:32;;;;;;;10.85;6.75;;;-0.70;99.90;;;-1.86;100.00;102328.59;4155590;28;20034;-79
2023/01/21 06:08:33;;;;;;;10.80;6.60;;;-0.70;99.90;;;-1.93;100.00;102321.88;4163605;28;20503;-79
2023/01/21 06:10:34;;;;;;;13.88;7.18;;;-0.70;99.90;;;-1.94;100.00;102326.19;4153117;28;20034;-79
2023/01/21 06:12:35;;;;;;;10.65;6.55;;;-0.70;99.90;;;-1.90;100.00;102329.53;4136662;28;20041;-79
2023/01/21 06:14:36;;;;;;;12.10;7.45;;;-0.70;99.90;;;-1.94;100.00;102331.34;4136759;28;20031;-79
2023/01/21 06:16:37;;;;;;;11.30;6.97;;;-0.70;99.90;;;-1.90;100.00;102339.88;4156391;28;20036;-79
2023/01/21 06:18:38;;;;;;;9.18;6.07;;;-0.70;99.90;;;-1.92;100.00;102331.31;4159665;28;20026;-79
2023/01/21 06:20:39;;;;;;;10.00;6.00;;;-0.80;99.90;;;-2.00;100.00;102328.09;4152607;28;20045;-79
2023/01/21 06:22:40;;;;;;;9.10;6.50;;;-0.70;99.90;;;-1.99;100.00;102324.59;4154156;28;20034;-79
2023/01/21 06:24:41;;;;;;;9.90;6.90;;;-0.80;99.90;;;-1.97;100.00;102325.44;4154926;28;20030;-79
2023/01/21 06:26:42;;;;;;;9.55;6.13;;;-0.80;99.90;;;-1.95;100.00;102334.00;4155898;28;20402;-79
2023/01/21 06:28:42;;;;;;;8.63;6.05;;;-0.80;99.90;;;-1.96;100.00;102329.69;4158006;28;20018;-79
2023/01/21 06:30:43;;;;;;;10.93;6.65;;;-0.80;99.90;;;-1.95;100.00;102331.41;4153822;28;20033;-79
2023/01/21 06:32:44;;;;;;;12.15;6.93;;;-0.80;99.90;;;-1.83;100.00;102337.13;4152812;28;20033;-79
2023/01/21 06:34:45;;;;;;;11.63;6.28;;;-0.70;99.90;;;-1.83;100.00;102337.13;4152465;28;20026;-79
2023/01/21 06:36:46;;;;;;;9.00;6.45;;;-0.70;99.90;;;-1.83;100.00;102339.72;4156295;28;20056;-79
2023/01/21 06:38:47;;;;;;;8.48;6.03;;;-0.70;99.90;;;-1.84;100.00;102340.59;4153687;28;20048;-79
2023/01/21 06:40:48;;;;;;;9.63;5.85;;;-0.70;99.90;;;-1.89;100.00;102339.00;4152752;28;20069;-79
2023/01/21 06:42:49;;;;;;;8.82;6.38;;;-0.70;99.90;;;-1.89;100.00;102336.44;4153839;28;20040;-79
2023/01/21 06:44:50;;;;;;;12.18;7.00;;;-0.70;99.90;;;-1.92;100.00;102331.31;4153785;28;20030;-79
2023/01/21 06:46:51;;;;;;;13.93;6.60;;;-0.70;99.90;;;-1.81;100.00;102340.50;4154591;28;20104;-79
2023/01/21 06:48:53;;;;;;;17.83;8.35;;;-0.70;99.90;;;-1.62;100.00;102342.63;4153957;28;20025;-79
2023/01/21 06:50:54;;;;;;;16.63;9.32;;;-0.60;99.90;;;-1.55;100.00;102346.78;4153487;28;20018;-79
2023/01/21 06:52:54;;;;;;;16.55;8.82;;;-0.50;99.90;;;-1.50;100.00;102348.34;4152409;28;20061;-79
2023/01/21 06:54:55;;;;;;;13.02;7.82;;;-0.40;99.90;;;-1.42;100.00;102353.31;4153431;28;20033;-79
2023/01/21 06:56:56;;;;;;;15.27;8.95;;;-0.30;99.90;;;-1.37;100.00;102352.28;4159318;28;20080;-79
2023/01/21 06:58:57;;;;;;;20.73;9.82;;;-0.30;99.90;;;-1.21;100.00;102363.09;4152394;28;20052;-79
2023/01/21 07:00:58;;;;;;;11.82;8.70;;;-0.20;99.90;;;-1.19;100.00;102366.47;4153465;28;20034;-79
2023/01/21 07:02:59;;;;;;;15.63;9.63;;;-0.20;99.90;;;-1.23;100.00;102355.38;4152460;28;20050;-79
2023/01/21 07:05:01;;;;;;;14.30;9.63;;;-0.10;99.90;;;-1.17;100.00;102364.72;4152212;28;20030;-79
2023/01/21 07:07:02;;;;;;;18.05;8.73;;;-0.10;99.90;;;-1.14;100.00;102370.66;4155495;28;20044;-79
2023/01/21 07:09:04;;;;;;;12.23;8.02;;;-0.10;99.90;;;-1.19;100.00;102364.75;4153353;28;20029;-79
2023/01/21 07:11:05;;;;;;;14.32;8.95;;;-0.10;99.90;;;-1.13;100.00;102369.75;4135747;28;20069;-79
2023/01/21 07:13:05;;;;;;;16.88;8.63;;;-0.10;99.90;;;-1.15;100.00;102368.09;4152399;28;20058;-79
2023/01/21 07:15:07;;;;;;;14.25;9.27;;;-0.10;99.90;;;-1.14;100.00;102370.66;4152207;28;20053;-79
2023/01/21 07:17:08;;;;;;;19.60;9.25;;;-0.10;99.90;;;-1.08;100.00;102380.00;4136307;28;20073;-79
2023/01/21 07:19:10;;;;;;;14.70;8.73;;;0.00;99.90;;;-1.02;100.00;102377.25;4151857;28;20060;-79
2023/01/21 07:21:11;;;;;;;14.07;8.63;;;0.00;99.90;;;-0.96;100.00;102382.25;4135581;28;20058;-79
2023/01/21 07:23:12;;;;;;;13.88;8.85;;;0.10;99.90;;;-0.94;100.00;102389.97;4153392;28;20037;-79
2023/01/21 07:25:13;;;;;;;13.48;8.13;;;0.10;99.90;;;-0.95;100.00;102393.44;4154019;28;20494;-79
2023/01/21 07:27:15;;;;;;;17.90;9.13;;;0.10;99.90;;;-0.92;100.00;102398.53;4163123;28;20017;-79
2023/01/21 07:29:15;;;;;;;11.75;8.02;;;0.20;99.90;;;-0.87;100.00;102402.72;4154466;28;20113;-79
2023/01/21 07:31:16;;;;;;;14.05;8.75;;;0.20;99.90;;;-0.85;100.00;102402.66;4153133;28;20030;-79
2023/01/21 07:33:17;;;;;;;12.88;8.00;;;0.20;99.90;;;-0.75;100.00;102414.47;4151817;28;20061;-79
2023/01/21 07:35:18;;;;;;;14.23;7.05;;;0.30;99.90;;;-0.75;100.00;102415.34;4152758;28;20025;-79
2023/01/21 07:37:19;;;;;;;11.52;8.10;;;0.30;99.90;;;-0.72;100.00;102415.22;4161743;28;20555;-79
2023/01/21 07:39:20;;;;;;;18.10;8.95;;;0.30;99.90;;;-0.70;100.00;102412.59;4151647;28;20037;-79
2023/01/21 07:41:21;;;;;;;12.32;8.38;;;0.40;99.90;;;-0.67;100.00;102415.09;4152961;28;20033;-79
2023/01/21 07:43:22;;;;;;;13.85;8.43;;;0.40;99.90;;;-0.64;100.00;102415.00;4151580;28;20034;-79
2023/01/21 07:45:23;;;;;;;15.82;8.27;;;0.50;99.90;;;-0.56;100.00;102423.41;4152078;28;20034;-79
2023/01/21 07:47:24;;;;;;;12.95;7.43;;;0.50;99.90;;;-0.54;100.00;102418.19;4141488;28;20030;-79
2023/01/21 07:49:25;;;;;;;14.50;7.95;;;0.60;99.90;;;-0.43;100.00;102426.50;4151414;28;20488;-79
2023/01/21 07:51:26;;;;;;;10.23;7.65;;;0.60;99.90;;;-0.39;100.00;102436.75;4152689;28;20034;-79
2023/01/21 07:53:27;;;;;;;14.93;8.13;;;0.60;99.90;;;-0.34;100.00;102436.59;4152851;28;20442;-79
2023/01/21 07:55:28;;;;;;;12.13;8.05;;;0.70;99.90;;;-0.34;100.00;102434.88;4152770;28;20029;-79
2023/01/21 07:57:29;;;;;;;12.13;7.72;;;0.70;99.90;;;-0.22;100.00;102436.25;4155299;28;20468;-79
2023/01/21 07:59:30;;;;;;;16.65;7.25;;;0.80;99.90;;;-0.16;100.00;102442.09;4151436;28;20029;-79
2023/01/21 08:01:31;;;;;;;16.98;7.85;;;0.90;99.90;;;-0.10;100.00;102438.47;4151486;28;20124;-79
2023/01/21 08:03:33;;;;;;;18.10;7.47;;;1.00;99.90;;;-0.06;100.00;102438.31;4151530;28;20033;-79
2023/01/21 08:05:34;;;;;;;13.75;6.78;;;1.00;99.90;;;0.07;100.00;102445.72;4151301;28;20078;-79
2023/01/21 08:07:35;;;;;;;12.05;7.47;;;1.10;99.90;;;-0.01;100.00;102444.22;4152219;28;20025;-79
2023/01/21 08:09:36;;;;;;;14.43;6.75;;;1.10;99.90;;;0.08;100.00;102460.41;4151506;28;20436;-79
2023/01/21 08:11:37;;;;;;;15.70;6.82;;;1.10;99.90;;;-0.02;100.00;102439.06;4152615;28;20097;-79
2023/01/21 08:13:38;;;;;;;14.18;7.47;;;1.20;99.90;;;0.08;100.00;102453.47;4152138;28;20072;-79
2023/01/21 08:15:39;;;;;;;12.20;7.10;;;1.20;99.90;;;0.10;100.00;102458.59;4151018;28;20022;-79
2023/01/21 08:17:43;;;;;;;15.60;6.68;;;1.20;99.90;;;0.10;100.00;102459.44;4163803;28;20029;-79
2023/01/21 08:19:44;;;;;;;19.77;6.90;;;1.20;99.90;;;0.09;100.00;102451.72;4152272;28;20061;-79
2023/01/21 08:21:45;;;;;;;13.05;7.20;;;1.20;99.90;;;0.23;100.00;102457.31;4151092;28;20042;-79
2023/01/21 08:23:46;;;;;;;12.82;6.78;;;1.20;99.90;;;0.22;100.00;102458.22;4151124;28;20030;-79
2023/01/21 08:25:47;;;;;;;13.68;6.63;;;1.30;99.90;;;0.26;100.00;102457.22;4153178;28;20033;-79
2023/01/21 08:27:48;;;;;;;15.90;7.07;;;1.30;99.90;;;0.28;100.00;102464.06;4161810;28;20022;-79